Time;durP1;ratioP1;P1;durP2;ratioP2;P2;SDS_P1;SDS_P2;PMS_P1;PMS_P2;Temp;Humidity;BMP_temperature;BMP_pressure;BME280_temperature;BME280_humidity;BME280_pressure;Samples;Min_cycle;Max_cycle;Signal;HPM_P1;HPM_P2
2021/05/25 00:01:06;;;;;;;21.10;10.63;;;;;;;10.76;77.12;100245.75;129650;1104;23384;-66
2021/05/25 00:03:34;;;;;;;21.55;9.93;;;;;;;10.74;77.16;100251.44;129679;1104;22557;-66
2021/05/25 00:06:03;;;;;;;17.60;11.10;;;;;;;10.75;77.54;100249.54;129618;1104;22953;-66
2021/05/25 00:08:32;;;;;;;18.68;10.65;;;;;;;10.73;77.41;100241.60;129677;1104;22627;-66
2021/05/25 00:11:01;;;;;;;23.93;11.43;;;;;;;10.74;77.47;100248.71;129658;1104;23608;-66
2021/05/25 00:13:29;;;;;;;16.80;10.25;;;;;;;10.73;77.32;100247.05;129637;1104;22766;-67
2021/05/25 00:15:57;;;;;;;20.68;10.63;;;;;;;10.72;77.00;100253.57;129636;1104;22685;-66
2021/05/25 00:18:26;;;;;;;23.75;10.43;;;;;;;10.69;77.06;100248.59;129698;1104;23455;-67
2021/05/25 00:20:54;;;;;;;22.35;11.30;;;;;;;10.68;76.96;100244.21;129634;1104;22629;-66
2021/05/25 00:23:23;;;;;;;25.13;10.50;;;;;;;10.68;77.12;100248.83;129646;1104;22624;-67
2021/05/25 00:25:52;;;;;;;21.83;9.13;;;;;;;10.65;77.10;100244.72;129668;1104;22508;-66
2021/05/25 00:28:20;;;;;;;27.30;10.83;;;;;;;10.62;76.75;100245.19;129611;1104;22572;-66
2021/05/25 00:30:49;;;;;;;21.63;10.48;;;;;;;10.61;76.79;100255.27;129693;1104;22599;-67
2021/05/25 00:33:18;;;;;;;15.58;10.08;;;;;;;10.60;76.96;100252.77;129645;1104;23655;-66
2021/05/25 00:35:46;;;;;;;21.33;12.08;;;;;;;10.57;76.88;100259.53;128471;1104;22781;-66
2021/05/25 00:38:15;;;;;;;22.07;11.03;;;;;;;10.53;76.89;100261.06;125045;1104;22947;-66
2021/05/25 00:40:43;;;;;;;19.13;10.67;;;;;;;10.49;76.69;100259.91;125065;1096;26221;-67
2021/05/25 00:43:11;;;;;;;15.23;8.45;;;;;;;10.48;76.70;100260.98;124945;1104;22776;-66
2021/05/25 00:45:40;;;;;;;13.87;9.03;;;;;;;10.46;76.64;100256.83;125125;1104;22925;-66
2021/05/25 00:48:09;;;;;;;13.00;7.17;;;;;;;10.42;76.73;100259.20;129556;1104;23616;-67
2021/05/25 00:50:37;;;;;;;12.67;6.80;;;;;;;10.38;76.50;100258.04;129678;1103;23476;-67
2021/05/25 00:53:06;;;;;;;12.53;7.48;;;;;;;10.35;76.54;100263.13;129648;1104;23084;-67
2021/05/25 00:55:36;;;;;;;16.67;7.63;;;;;;;10.30;76.53;100266.55;129689;1104;22515;-67
2021/05/25 00:58:06;;;;;;;13.35;7.78;;;;;;;10.27;76.63;100267.85;129605;1104;22642;-67
2021/05/25 01:00:44;;;;;;;15.95;9.50;;;;;;;10.25;76.87;100260.98;129633;1104;22749;-67
2021/05/25 01:03:17;;;;;;;;;;;;;;;10.24;76.90;100265.59;129660;1104;22689;-67
2021/05/25 01:05:49;;;;;;;16.25;7.93;;;;;;;10.23;77.10;100265.86;129691;1104;21343;-67
2021/05/25 01:08:17;;;;;;;10.00;7.08;;;;;;;10.22;77.03;100264.20;129577;1104;22614;-67
2021/05/25 01:10:49;;;;;;;14.37;7.40;;;;;;;10.20;77.33;100256.27;129648;1104;23330;-67
2021/05/25 01:13:21;;;;;;;16.28;6.75;;;;;;;10.21;77.10;100259.82;129616;1104;22557;-67
2021/05/25 01:15:49;;;;;;;12.35;5.08;;;;;;;10.23;77.17;100253.08;129696;1104;22604;-67
2021/05/25 01:18:20;;;;;;;12.10;4.60;;;;;;;10.24;77.16;100251.19;129980;1101;22623;-67
2021/05/25 01:21:05;;;;;;;11.58;6.13;;;;;;;10.23;76.96;100247.63;130020;1101;22943;-67
2021/05/25 01:23:35;;;;;;;12.13;6.50;;;;;;;10.24;77.04;100249.26;129934;1101;22656;-67
2021/05/25 01:26:04;;;;;;;14.78;7.05;;;;;;;10.23;77.16;100246.80;129991;1101;22561;-67
2021/05/25 01:28:32;;;;;;;21.83;9.63;;;;;;;10.24;77.15;100257.42;129944;1101;22647;-67
2021/05/25 01:31:03;;;;;;;10.85;5.00;;;;;;;10.24;76.85;100257.42;129970;1101;22623;-67
2021/05/25 01:33:32;;;;;;;14.13;6.40;;;;;;;10.22;77.23;100254.14;129981;1101;23207;-67
2021/05/25 01:36:00;;;;;;;10.50;4.60;;;;;;;10.22;77.11;100256.86;128418;1096;26221;-67
2021/05/25 01:38:28;;;;;;;13.00;6.75;;;;;;;10.23;77.27;100257.70;129983;1101;22554;-67
2021/05/25 01:40:57;;;;;;;10.15;6.13;;;;;;;10.20;76.56;100261.72;129960;1101;22723;-65
2021/05/25 01:43:25;;;;;;;19.00;7.60;;;;;;;10.18;77.20;100260.26;129984;1101;23787;-66
2021/05/25 01:45:54;;;;;;;14.93;7.63;;;;;;;10.16;76.79;100265.94;129993;1101;22525;-66
2021/05/25 01:48:23;;;;;;;14.30;6.88;;;;;;;10.13;76.89;100262.85;130005;1101;22559;-65
2021/05/25 01:50:52;;;;;;;22.20;9.20;;;;;;;10.09;76.86;100265.24;129949;1101;22623;-65
2021/05/25 01:53:24;;;;;;;11.53;7.33;;;;;;;10.06;76.98;100265.71;130046;1101;22564;-65
2021/05/25 01:55:54;;;;;;;9.48;6.35;;;;;;;10.04;77.24;100258.84;129942;1101;22569;-65
2021/05/25 01:58:27;;;;;;;13.28;5.60;;;;;;;10.00;77.36;100263.92;129989;1101;22558;-65
2021/05/25 02:01:06;;;;;;;14.77;6.17;;;;;;;9.98;77.75;100265.22;129988;1101;22697;-65
2021/05/25 02:03:35;;;;;;;8.83;4.45;;;;;;;9.96;77.19;100264.62;129997;1101;22572;-66
2021/05/25 02:06:06;;;;;;;10.15;5.40;;;;;;;9.93;77.33;100272.22;129946;1101;22551;-66
2021/05/25 02:08:35;;;;;;;11.70;4.58;;;;;;;9.91;77.48;100266.17;130010;1101;23608;-66
2021/05/25 02:11:04;;;;;;;10.75;6.85;;;;;;;9.91;77.45;100266.17;129971;1101;22633;-66
2021/05/25 02:13:34;;;;;;;11.80;5.95;;;;;;;9.92;77.40;100267.84;130012;1101;22591;-66
2021/05/25 02:16:08;;;;;;;9.43;4.73;;;;;;;9.90;77.23;100267.23;129953;1101;22586;-66
2021/05/25 02:18:47;;;;;;;8.13;4.53;;;;;;;9.91;77.53;100265.34;129983;1101;22525;-66
2021/05/25 02:21:16;;;;;;;10.73;3.58;;;;;;;9.94;78.10;100267.60;129929;1101;23270;-66
2021/05/25 02:23:46;;;;;;;5.75;3.70;;;;;;;9.97;78.70;100264.38;129964;1101;22577;-66
2021/05/25 02:26:14;;;;;;;7.75;3.80;;;;;;;10.00;78.90;100265.81;129917;1101;22588;-66
2021/05/25 02:28:42;;;;;;;9.93;3.55;;;;;;;10.04;78.86;100267.00;130011;1101;22622;-66
2021/05/25 02:31:11;;;;;;;8.45;4.18;;;;;;;10.06;79.06;100260.27;129964;1101;23208;-65
2021/05/25 02:33:40;;;;;;;9.80;3.73;;;;;;;10.11;79.24;100264.98;130022;1101;23300;-66
2021/05/25 02:36:08;;;;;;;6.40;3.63;;;;;;;10.16;79.58;100270.55;129955;1101;22670;-65
2021/05/25 02:38:36;;;;;;;7.85;3.80;;;;;;;10.24;79.87;100272.97;130003;1101;22575;-65
2021/05/25 02:41:05;;;;;;;13.50;4.90;;;;;;;10.28;79.89;100269.52;129997;1101;22575;-65
2021/05/25 02:43:33;;;;;;;10.45;4.10;;;;;;;10.38;80.39;100270.83;129980;1101;22611;-65
2021/05/25 02:46:02;;;;;;;12.85;4.33;;;;;;;10.46;80.22;100265.83;129999;1101;23483;-66
2021/05/25 02:48:30;;;;;;;10.25;4.38;;;;;;;10.57;80.27;100269.59;129936;1101;22595;-66
2021/05/25 02:50:58;;;;;;;8.48;4.03;;;;;;;10.67;80.54;100277.19;130000;1101;23419;-66
2021/05/25 02:53:27;;;;;;;13.10;3.73;;;;;;;10.77;80.68;100277.39;129978;1101;22612;-65
2021/05/25 02:55:55;;;;;;;7.78;3.58;;;;;;;10.87;80.87;100278.42;130017;1101;22503;-65
2021/05/25 02:58:23;;;;;;;8.90;3.60;;;;;;;10.98;81.01;100277.55;129941;1101;22535;-66
2021/05/25 03:00:52;;;;;;;8.00;3.95;;;;;;;11.08;81.24;100273.39;129984;1101;23273;-65
2021/05/25 03:03:20;;;;;;;12.73;3.73;;;;;;;11.18;81.53;100274.41;129961;1101;23344;-68
2021/05/25 03:05:56;;;;;;;14.13;3.83;;;;;;;11.28;81.41;100277.31;130034;1101;22533;-65
2021/05/25 03:08:26;;;;;;;12.20;3.98;;;;;;;11.40;81.55;100279.19;129965;1101;23171;-65
2021/05/25 03:10:56;;;;;;;11.63;3.50;;;;;;;11.51;81.33;100286.48;129990;1101;22694;-65
2021/05/25 03:13:24;;;;;;;11.35;4.20;;;;;;;11.59;81.24;100278.70;129979;1101;23557;-65
2021/05/25 03:15:53;;;;;;;7.90;3.53;;;;;;;11.70;80.95;100288.72;129982;1101;22578;-65
2021/05/25 03:18:21;;;;;;;11.85;4.20;;;;;;;11.81;80.54;100286.22;129964;1101;22666;-66
2021/05/25 03:20:50;;;;;;;12.80;4.83;;;;;;;11.92;79.90;100277.94;130021;1101;23342;-65
2021/05/25 03:23:19;;;;;;;18.93;5.90;;;;;;;12.02;79.39;100283.56;129964;1101;22666;-65
2021/05/25 03:25:49;;;;;;;15.33;6.33;;;;;;;12.14;79.10;100286.20;130024;1101;22582;-65
2021/05/25 03:28:17;;;;;;;28.75;7.05;;;;;;;12.25;78.78;100282.56;130006;1101;23466;-65
2021/05/25 03:30:45;;;;;;;19.07;7.63;;;;;;;12.37;78.07;100288.75;129999;1101;22825;-65
2021/05/25 03:33:14;;;;;;;20.40;7.57;;;;;;;12.50;77.98;100289.47;129961;1101;23210;-65
2021/05/25 03:35:42;;;;;;;17.10;6.45;;;;;;;12.63;77.11;100291.84;130020;1101;23384;-66
2021/05/25 03:38:11;;;;;;;17.38;5.65;;;;;;;12.74;76.26;100291.72;130001;1101;22958;-65
2021/05/25 03:40:39;;;;;;;13.00;5.55;;;;;;;12.84;75.46;100288.27;129913;1101;22643;-65
2021/05/25 03:43:08;;;;;;;15.28;4.98;;;;;;;12.96;74.86;100283.53;129992;1101;23621;-66
2021/05/25 03:45:37;;;;;;;18.08;5.63;;;;;;;13.07;74.09;100285.30;129963;1101;23037;-65
2021/05/25 03:48:06;;;;;;;15.83;6.15;;;;;;;13.18;74.10;100286.27;130013;1101;22586;-66
2021/05/25 03:50:35;;;;;;;17.63;6.98;;;;;;;13.28;73.42;100285.55;129960;1101;23168;-65
2021/05/25 03:53:03;;;;;;;21.88;6.40;;;;;;;13.38;73.08;100282.94;129968;1101;22631;-66
2021/05/25 04:00:48;;;;;;;;;;;;;;;13.71;72.06;100279.95;129981;1101;22626;-66
2021/05/25 04:03:17;;;;;;;10.73;3.70;;;;;;;13.82;71.57;100283.64;130010;1101;21838;-66
2021/05/25 04:05:46;;;;;;;14.98;4.38;;;;;;;13.95;70.80;100280.46;129958;1101;23468;-66
2021/05/25 04:08:16;;;;;;;13.98;4.30;;;;;;;14.09;70.60;100278.09;130013;1101;22648;-66
2021/05/25 04:10:45;;;;;;;18.63;5.38;;;;;;;14.23;70.20;100264.77;129958;1101;22715;-66
2021/05/25 04:13:15;;;;;;;16.48;5.00;;;;;;;14.36;69.54;100267.05;129995;1101;22657;-66
2021/05/25 04:15:47;;;;;;;15.68;4.30;;;;;;;14.49;69.36;100263.86;129989;1101;23399;-66
2021/05/25 04:18:15;;;;;;;10.20;4.20;;;;;;;14.60;69.03;100271.05;130030;1101;22540;-66
2021/05/25 04:20:44;;;;;;;7.40;4.03;;;;;;;14.72;68.54;100265.34;129967;1101;22572;-66
2021/05/25 04:23:13;;;;;;;7.55;3.45;;;;;;;14.80;67.72;100262.94;130023;1101;23952;-67
2021/05/25 04:25:41;;;;;;;7.98;2.78;;;;;;;14.89;66.71;100257.73;130000;1101;22589;-66
2021/05/25 04:28:09;;;;;;;6.05;2.53;;;;;;;14.98;66.26;100264.38;129987;1101;23209;-66
2021/05/25 04:30:38;;;;;;;5.48;2.35;;;;;;;15.03;65.58;100258.06;129975;1101;23549;-66
2021/05/25 04:33:06;;;;;;;5.95;1.90;;;;;;;15.12;64.35;100265.53;129953;1101;22572;-67
2021/05/25 04:35:35;;;;;;;3.63;1.70;;;;;;;15.20;63.94;100267.73;129998;1101;23421;-66
2021/05/25 04:38:05;;;;;;;4.08;2.00;;;;;;;15.28;63.22;100265.58;130004;1101;22552;-66
2021/05/25 04:40:34;;;;;;;5.60;1.95;;;;;;;15.35;62.66;100255.14;130013;1101;23100;-66
2021/05/25 04:43:03;;;;;;;3.38;1.40;;;;;;;15.42;62.31;100252.97;129965;1101;22618;-66
2021/05/25 04:45:31;;;;;;;4.25;1.45;;;;;;;15.49;62.28;100259.84;129375;1095;25967;-66
2021/05/25 04:48:00;;;;;;;3.75;1.45;;;;;;;15.55;61.95;100255.22;125317;1101;22762;-67
2021/05/25 04:50:28;;;;;;;3.55;1.63;;;;;;;15.62;61.84;100247.52;125410;1101;22878;-68
2021/05/25 04:52:59;;;;;;;4.43;2.00;;;;;;;15.69;61.11;100250.84;125465;1096;22799;-67
2021/05/25 04:55:27;;;;;;;4.80;1.33;;;;;;;15.79;59.97;100245.34;125526;1101;22775;-68
2021/05/25 04:57:56;;;;;;;1.45;1.10;;;;;;;15.91;58.63;100251.38;129975;1101;23244;-66
2021/05/25 05:00:27;;;;;;;4.05;1.85;;;;;;;16.05;57.42;100243.39;129999;1101;22720;-66
2021/05/25 05:02:56;;;;;;;4.80;1.53;;;;;;;16.21;56.88;100238.70;129994;1101;22733;-66
2021/05/25 05:05:24;;;;;;;4.20;1.18;;;;;;;16.42;56.05;100242.25;129989;1101;22579;-66
2021/05/25 05:07:53;;;;;;;2.00;1.00;;;;;;;16.63;55.81;100237.52;129956;1101;22555;-66
2021/05/25 05:10:22;;;;;;;6.35;1.10;;;;;;;16.77;54.30;100239.40;130039;1101;22534;-66
2021/05/25 05:12:50;;;;;;;2.55;1.50;;;;;;;16.85;54.19;100240.76;130007;1101;24227;-66
2021/05/25 05:17:24;;;;;;;3.55;1.23;;;;;;;16.88;54.37;100240.20;125525;1092;22766;-66
2021/05/25 05:19:53;;;;;;;3.18;1.58;;;;;;;16.90;55.01;100244.29;125035;1104;25582;-66
2021/05/25 05:22:21;;;;;;;4.68;1.58;;;;;;;16.94;55.39;100234.38;129694;1104;22595;-67
2021/05/25 05:24:50;;;;;;;6.40;1.58;;;;;;;17.00;55.22;100245.38;129994;1101;23775;-65
2021/05/25 05:27:18;;;;;;;5.48;1.58;;;;;;;17.05;54.95;100246.15;130014;1101;22522;-68
2021/05/25 05:29:47;;;;;;;5.28;1.60;;;;;;;17.14;55.67;100249.98;129945;1101;23165;-68
2021/05/25 05:32:15;;;;;;;6.80;2.48;;;;;;;17.23;55.26;100244.69;129684;1101;23285;-67
2021/05/25 05:34:44;;;;;;;6.35;1.55;;;;;;;17.28;55.08;100242.73;129972;1101;23413;-66
2021/05/25 05:37:13;;;;;;;6.45;1.50;;;;;;;17.37;54.85;100247.63;130002;1101;22595;-67
2021/05/25 05:39:43;;;;;;;6.08;1.75;;;;;;;17.49;54.81;100246.16;129963;1101;23203;-67
2021/05/25 05:42:12;;;;;;;3.53;1.30;;;;;;;17.65;54.38;100238.65;130008;1101;22589;-67
2021/05/25 05:44:42;;;;;;;5.48;1.63;;;;;;;17.82;54.26;100239.06;129926;1101;23508;-66
2021/05/25 05:47:10;;;;;;;2.75;1.98;;;;;;;17.98;53.42;100237.83;129974;1101;23411;-66
2021/05/25 05:49:39;;;;;;;4.83;1.65;;;;;;;18.15;51.36;100226.38;129950;1101;22532;-66
2021/05/25 05:52:07;;;;;;;5.98;1.40;;;;;;;18.29;51.34;100223.75;129978;1101;22660;-66
2021/05/25 05:54:36;;;;;;;4.68;1.60;;;;;;;18.43;51.50;100219.18;129925;1101;22605;-66
2021/05/25 05:57:06;;;;;;;5.05;1.53;;;;;;;18.56;51.08;100212.13;130010;1101;22625;-66
2021/05/25 05:59:36;;;;;;;3.15;1.78;;;;;;;18.65;51.09;100208.45;129939;1101;22723;-66
2021/05/25 06:02:04;;;;;;;5.48;1.65;;;;;;;18.70;51.17;100215.86;129929;1101;22543;-65
2021/05/25 06:04:33;;;;;;;2.53;1.30;;;;;;;18.73;50.54;100212.52;129941;1101;22561;-67
2021/05/25 06:07:01;;;;;;;3.45;1.63;;;;;;;18.74;50.47;100211.40;129915;1101;22725;-66
2021/05/25 06:09:31;;;;;;;7.10;1.60;;;;;;;18.74;50.24;100222.44;129650;1101;23349;-68
2021/05/25 06:11:59;;;;;;;4.85;1.65;;;;;;;18.73;50.43;100204.23;129665;1103;22513;-66
2021/05/25 06:14:28;;;;;;;8.40;1.45;;;;;;;18.75;50.58;100212.22;129709;1102;22570;-66
2021/05/25 06:16:59;;;;;;;8.40;1.95;;;;;;;18.77;49.59;100205.26;129687;1101;22590;-66
2021/05/25 06:19:27;;;;;;;4.33;1.73;;;;;;;18.75;49.87;100202.00;129690;1101;22683;-67
2021/05/25 06:21:55;;;;;;;4.33;1.88;;;;;;;18.75;51.17;100192.89;129564;1104;22596;-68
2021/05/25 06:24:24;;;;;;;3.48;1.35;;;;;;;18.78;49.97;100201.38;129722;1101;22559;-66
2021/05/25 06:26:52;;;;;;;3.78;1.68;;;;;;;18.79;49.72;100196.69;130169;1098;22562;-64
2021/05/25 06:29:21;;;;;;;6.75;1.50;;;;;;;18.78;49.39;100200.56;130375;1098;23407;-67
2021/05/25 06:31:50;;;;;;;3.63;1.60;;;;;;;18.77;49.53;100194.22;130344;1098;22512;-67
2021/05/25 06:34:18;;;;;;;5.15;1.20;;;;;;;18.79;50.67;100204.97;130367;1098;22567;-67
2021/05/25 06:36:55;;;;;;;8.15;2.33;;;;;;;18.85;50.83;100190.81;130340;1098;22554;-67
2021/05/25 06:39:24;;;;;;;8.65;3.10;;;;;;;18.91;50.96;100188.78;130361;1098;22536;-67
2021/05/25 06:41:52;;;;;;;6.28;2.53;;;;;;;18.94;50.75;100191.78;130272;1098;22570;-67
2021/05/25 06:44:20;;;;;;;6.60;2.43;;;;;;;18.95;50.03;100189.84;130330;1098;22694;-67
2021/05/25 06:46:49;;;;;;;4.20;1.98;;;;;;;18.91;49.81;100191.55;130349;1097;22565;-67
2021/05/25 06:49:17;;;;;;;4.55;1.40;;;;;;;18.85;50.76;100201.03;130338;1098;22574;-67
2021/05/25 06:51:46;;;;;;;3.58;1.50;;;;;;;18.83;51.23;100211.55;130347;1098;22819;-67
2021/05/25 06:54:15;;;;;;;5.53;1.20;;;;;;;18.83;51.19;100206.03;130339;1098;22553;-67
2021/05/25 06:56:43;;;;;;;4.28;1.43;;;;;;;18.82;51.12;100199.69;130305;1098;23386;-67
2021/05/25 06:59:13;;;;;;;2.80;1.30;;;;;;;18.85;51.45;100204.63;130326;1098;23436;-67
2021/05/25 07:01:42;;;;;;;1.90;1.30;;;;;;;18.87;51.95;100202.39;130336;1098;22620;-67
2021/05/25 07:04:10;;;;;;;3.35;1.53;;;;;;;18.90;51.62;100195.45;130379;1098;22543;-66
2021/05/25 07:06:38;;;;;;;4.65;1.30;;;;;;;18.93;51.00;100203.95;130319;1098;22582;-67
2021/05/25 07:09:07;;;;;;;3.83;1.60;;;;;;;18.96;51.38;100197.84;130372;1098;23454;-67
2021/05/25 07:11:36;;;;;;;1.78;1.05;;;;;;;18.96;51.21;100197.02;130382;1098;22565;-66
2021/05/25 07:14:06;;;;;;;8.43;1.90;;;;;;;18.93;51.30;100198.42;130318;1098;22684;-67
2021/05/25 07:16:36;;;;;;;1.40;1.00;;;;;;;18.94;51.14;100199.25;130009;1098;23058;-66
2021/05/25 07:19:06;;;;;;;5.80;2.63;;;;;;;18.96;51.20;100191.48;130290;1098;23734;-67
2021/05/25 07:21:34;;;;;;;2.80;1.30;;;;;;;18.97;51.10;100188.44;130308;1098;22569;-67
2021/05/25 07:24:06;;;;;;;3.50;1.50;;;;;;;18.97;50.40;100196.72;130371;1098;22521;-68
2021/05/25 07:26:34;;;;;;;2.25;1.40;;;;;;;18.97;50.69;100196.72;130383;1098;23271;-68
2021/05/25 07:29:03;;;;;;;3.80;1.48;;;;;;;19.00;50.57;100200.84;130330;1098;24343;-67
2021/05/25 07:31:31;;;;;;;2.25;1.30;;;;;;;19.00;50.07;100200.84;130333;1098;22572;-68
2021/05/25 07:34:00;;;;;;;4.45;1.40;;;;;;;19.01;49.91;100194.20;130358;1098;23729;-68
2021/05/25 07:36:28;;;;;;;4.00;1.50;;;;;;;19.01;49.91;100183.14;130313;1098;22565;-66
2021/05/25 07:38:56;;;;;;;2.40;1.30;;;;;;;19.05;50.58;100175.88;130342;1098;22555;-66
2021/05/25 07:41:25;;;;;;;2.48;1.85;;;;;;;19.12;49.72;100184.64;130346;1098;23045;-67
2021/05/25 07:43:53;;;;;;;2.48;1.15;;;;;;;19.15;49.04;100177.70;130308;1098;23083;-67
2021/05/25 07:46:24;;;;;;;2.08;1.45;;;;;;;19.16;49.20;100174.64;130323;1098;22532;-66
2021/05/25 07:49:00;;;;;;;4.45;1.63;;;;;;;19.16;48.82;100168.30;130346;1098;22548;-66
2021/05/25 07:51:36;;;;;;;2.37;1.27;;;;;;;19.16;48.68;100173.82;130323;1098;22678;-66
2021/05/25 07:54:05;;;;;;;5.35;1.70;;;;;;;19.18;48.60;100182.63;130265;1098;23118;-67
2021/05/25 07:56:35;;;;;;;1.85;1.28;;;;;;;19.19;49.41;100181.52;130380;1098;22561;-67
2021/05/25 07:59:03;;;;;;;5.18;1.40;;;;;;;19.18;48.53;100177.11;130351;1098;23585;-66
2021/05/25 08:01:32;;;;;;;2.50;1.50;;;;;;;19.18;48.38;100177.93;130359;1098;22576;-66
2021/05/25 08:04:00;;;;;;;1.88;1.08;;;;;;;19.22;48.36;100175.37;130297;1098;22567;-68
2021/05/25 08:06:28;;;;;;;1.83;1.40;;;;;;;19.24;49.24;100171.19;127952;1098;22766;-67
2021/05/25 08:08:57;;;;;;;1.83;1.10;;;;;;;19.26;50.10;100177.24;130276;1098;22698;-67
2021/05/25 08:11:26;;;;;;;2.05;0.95;;;;;;;19.28;50.28;100177.77;130364;1098;23374;-66
2021/05/25 08:13:54;;;;;;;2.13;1.40;;;;;;;19.32;46.88;100172.47;130374;1098;22540;-66
2021/05/25 08:16:27;;;;;;;1.83;1.30;;;;;;;19.32;45.54;100165.00;130350;1098;22588;-66
2021/05/25 08:21:40;;;;;;;1.90;1.43;;;;;;;19.31;45.95;100157.02;130399;1098;23652;-67
2021/05/25 08:24:09;;;;;;;1.60;1.10;;;;;;;19.33;47.02;100149.25;130404;1098;23230;-67
2021/05/25 08:26:40;;;;;;;1.73;1.13;;;;;;;19.34;46.44;100148.92;130338;1098;22580;-67
2021/05/25 08:29:11;;;;;;;2.43;1.15;;;;;;;19.37;47.15;100151.09;130427;1098;22975;-67
2021/05/25 08:31:40;;;;;;;1.78;1.28;;;;;;;19.38;46.95;100149.14;130302;1098;22600;-67
2021/05/25 08:34:09;;;;;;;1.40;1.15;;;;;;;19.39;46.27;100151.61;130378;1098;23067;-66
2021/05/25 08:36:37;;;;;;;2.50;1.20;;;;;;;19.42;45.90;100151.02;130358;1098;22697;-68
2021/05/25 08:39:07;;;;;;;2.15;1.23;;;;;;;19.46;47.22;100150.42;130153;1098;22551;-62
2021/05/25 08:41:35;;;;;;;1.67;1.23;;;;;;;19.46;47.73;100150.42;125759;1093;22759;-68
2021/05/25 08:44:05;;;;;;;1.25;1.10;;;;;;;19.48;47.74;100148.18;129030;1098;22748;-68
2021/05/25 08:46:33;;;;;;;1.33;1.00;;;;;;;19.50;47.51;100144.00;125839;1098;23267;-67
2021/05/25 08:49:02;;;;;;;1.58;1.00;;;;;;;19.55;46.88;100137.57;130333;1098;23606;-68
2021/05/25 08:51:31;;;;;;;2.15;1.08;;;;;;;19.58;46.13;100135.03;130325;1098;23383;-69
2021/05/25 08:54:00;;;;;;;1.78;1.00;;;;;;;19.62;45.98;100129.73;130385;1098;22525;-69
2021/05/25 08:56:30;;;;;;;5.13;1.30;;;;;;;19.62;46.18;100138.81;130296;1098;22536;-68
2021/05/25 08:59:00;;;;;;;3.80;1.13;;;;;;;19.63;47.58;100139.63;130352;1098;22564;-66
2021/05/25 09:01:28;;;;;;;1.85;1.10;;;;;;;19.65;47.24;100145.69;130349;1098;22987;-66
2021/05/25 09:04:06;;;;;;;2.75;1.45;;;;;;;19.66;47.43;100144.56;130386;1098;22535;-66
2021/05/25 09:06:40;;;;;;;11.45;2.08;;;;;;;19.70;47.20;100134.55;130297;1098;22566;-69
2021/05/25 09:09:26;;;;;;;3.05;1.80;;;;;;;19.72;47.46;100135.89;130340;1098;23100;-68
2021/05/25 09:12:07;;;;;;;2.28;1.20;;;;;;;19.76;46.88;100136.11;130344;1098;23756;-67
2021/05/25 09:14:49;;;;;;;2.98;1.65;;;;;;;19.81;46.92;100129.64;130364;1098;22578;-66
2021/05/25 09:17:22;;;;;;;2.60;1.60;;;;;;;19.83;47.29;100130.98;130336;1098;22573;-67
2021/05/25 09:19:57;;;;;;;1.25;1.10;;;;;;;19.85;46.97;100128.74;130414;1098;22531;-66
2021/05/25 09:22:29;;;;;;;2.10;0.90;;;;;;;19.87;47.44;100139.50;130319;1098;22531;-66
2021/05/25 09:25:01;;;;;;;3.20;1.33;;;;;;;19.89;45.02;100127.02;130348;1098;23241;-66
2021/05/25 09:27:38;;;;;;;2.73;1.30;;;;;;;19.89;45.00;100129.78;130350;1098;22543;-67
2021/05/25 09:30:21;;;;;;;1.63;0.90;;;;;;;19.87;44.21;100117.38;130377;1098;22663;-68
2021/05/25 09:32:57;;;;;;;2.70;1.45;;;;;;;19.85;44.93;100114.91;130343;1098;23620;-67
2021/05/25 09:35:33;;;;;;;1.28;1.18;;;;;;;19.87;45.27;100123.73;130351;1098;22725;-67
2021/05/25 09:38:13;;;;;;;2.70;1.30;;;;;;;19.90;45.41;100120.36;130350;1098;22617;-67
2021/05/25 09:40:48;;;;;;;1.38;1.13;;;;;;;19.93;46.45;100105.89;130406;1098;22584;-67
2021/05/25 09:43:21;;;;;;;4.83;1.33;;;;;;;19.96;46.42;100102.53;130320;1098;22703;-67
2021/05/25 09:46:00;;;;;;;1.95;1.30;;;;;;;20.00;45.39;100105.51;130381;1098;22569;-67
2021/05/25 09:48:30;;;;;;;3.48;1.55;;;;;;;20.02;43.11;100098.55;130371;1098;22533;-66
2021/05/25 09:51:00;;;;;;;5.28;2.98;;;;;;;20.03;43.87;100107.67;130408;1098;22550;-66
2021/05/25 09:53:30;;;;;;;3.90;1.53;;;;;;;20.03;44.65;100107.67;130315;1098;22565;-66
2021/05/25 09:56:01;;;;;;;3.50;1.20;;;;;;;20.05;44.95;100105.42;130362;1098;22536;-66
2021/05/25 09:58:33;;;;;;;34.28;5.05;;;;;;;20.06;45.32;100107.85;130366;1098;22712;-66
2021/05/25 10:01:02;;;;;;;5.65;1.33;;;;;;;20.06;46.29;100101.50;130388;1098;22999;-67
2021/05/25 10:03:34;;;;;;;2.58;1.00;;;;;;;20.08;45.77;100102.84;130294;1098;22683;-68
2021/05/25 10:06:03;;;;;;;4.05;1.45;;;;;;;20.11;45.89;100104.17;130332;1098;22580;-67
2021/05/25 10:08:32;;;;;;;5.53;1.10;;;;;;;20.15;45.98;100073.95;130346;1098;22682;-70
2021/05/25 10:11:20;;;;;;;1.58;1.18;;;;;;;20.21;46.25;100086.54;130287;1098;22546;-66
2021/05/25 10:13:48;;;;;;;5.40;1.50;;;;;;;20.27;44.03;100096.39;130013;1098;22552;-65
2021/05/25 10:16:28;;;;;;;7.20;1.25;;;;;;;20.32;45.67;100085.22;130321;1098;22583;-66
2021/05/25 10:19:13;;;;;;;6.65;1.63;;;;;;;20.36;45.30;100075.19;130297;1098;22610;-65
2021/05/25 10:21:43;;;;;;;4.30;1.35;;;;;;;20.39;44.15;100069.03;130340;1098;22535;-66
2021/05/25 10:24:12;;;;;;;7.45;1.43;;;;;;;20.38;45.05;100065.45;130352;1098;22536;-66
2021/05/25 10:26:40;;;;;;;5.33;1.63;;;;;;;20.38;44.85;100061.86;130384;1098;23148;-66
2021/05/25 10:29:11;;;;;;;2.13;1.40;;;;;;;20.36;44.86;100058.58;130371;1098;22603;-65
2021/05/25 10:31:42;;;;;;;3.70;1.58;;;;;;;20.32;44.56;100058.37;130318;1098;22668;-65
2021/05/25 10:34:15;;;;;;;3.30;1.73;;;;;;;20.30;45.17;100059.80;130119;1098;22637;-66
2021/05/25 10:36:58;;;;;;;2.05;1.20;;;;;;;20.29;44.78;100063.70;130333;1098;22647;-64
2021/05/25 10:39:32;;;;;;;2.10;1.23;;;;;;;20.28;44.77;100064.83;130365;1098;22575;-66
2021/05/25 10:42:22;;;;;;;1.88;1.33;;;;;;;20.27;44.48;100057.64;130365;1098;22608;-67
2021/05/25 10:45:01;;;;;;;5.65;1.20;;;;;;;20.24;44.77;100044.42;130401;1098;22683;-64
2021/05/25 10:47:35;;;;;;;2.13;1.15;;;;;;;20.23;45.18;100045.55;130403;1098;23317;-65
2021/05/25 10:53:04;;;;;;;4.43;1.00;;;;;;;20.20;44.93;100055.28;130362;1098;22612;-65
2021/05/25 10:55:42;;;;;;;16.93;5.48;;;;;;;20.21;44.60;100048.63;129346;1098;22821;-66
2021/05/25 10:58:34;;;;;;;3.80;1.25;;;;;;;20.24;45.46;100047.19;130402;1098;22548;-66
2021/05/25 11:01:09;;;;;;;2.20;1.03;;;;;;;20.26;44.16;100039.41;130346;1098;22594;-66
2021/05/25 11:03:37;;;;;;;4.68;1.13;;;;;;;20.27;44.79;100041.04;130344;1098;23425;-66
2021/05/25 11:06:06;;;;;;;2.10;1.00;;;;;;;20.27;45.14;100046.58;130307;1098;22526;-66
2021/05/25 11:08:39;;;;;;;4.18;1.58;;;;;;;20.29;45.39;100038.79;130392;1098;22553;-65
2021/05/25 11:11:15;;;;;;;3.70;1.10;;;;;;;20.28;45.24;100026.90;130343;1098;23386;-65
2021/05/25 11:13:52;;;;;;;4.73;1.10;;;;;;;20.30;45.09;100019.11;130358;1098;22555;-65
2021/05/25 11:16:27;;;;;;;;;;;;;;;20.32;45.93;100016.86;130331;1098;22737;-65
2021/05/25 11:19:18;;;;;;;4.05;1.25;;;;;;;20.34;47.13;100016.55;130364;1098;21766;-65
2021/05/25 11:24:36;;;;;;;6.68;1.30;;;;;;;20.41;45.59;100023.31;130369;1098;22611;-65
2021/05/25 11:27:27;;;;;;;6.18;2.73;;;;;;;20.43;45.42;100004.45;130326;1098;22561;-65
2021/05/25 11:30:01;;;;;;;4.23;2.28;;;;;;;20.48;45.64;100008.24;130319;1098;22546;-66
2021/05/25 11:32:30;;;;;;;2.83;1.40;;;;;;;20.48;44.54;100003.53;130286;1098;22535;-66
2021/05/25 11:35:07;;;;;;;4.30;1.35;;;;;;;20.45;45.65;100002.20;130371;1098;22636;-66
2021/05/25 11:37:38;;;;;;;4.60;1.20;;;;;;;20.45;45.91;100004.14;130321;1098;22584;-66
2021/05/25 11:40:10;;;;;;;4.38;1.28;;;;;;;20.45;45.78;100010.50;130346;1098;24015;-65
2021/05/25 11:42:39;;;;;;;4.35;1.40;;;;;;;20.46;45.77;100003.02;130315;1098;22546;-66
2021/05/25 11:45:09;;;;;;;4.00;1.60;;;;;;;20.52;46.09;100000.93;130383;1098;22527;-65